^^
Datos históricos de la estación: Murcia-Puente Tocinos
Diario Informe para Abril 26, 2019 Unidades:  Ambas    Ingés   Métrico
Diario Semanal Mensual Anual
  Máxima: Mínima: Promedio:
Temperatura: 68.4 °F /  20.2 °C 49.1 °F /  9.5 °C 58.5 °F /  14.7 °C
Punto de rocio: 45.3 °F /  7.4 °C 37.2 °F /  2.9 °C 40.5 °F /  4.7 °C
Humedad: 73.9% 39% 52%
Velocidad viento: 6.9mph /  11.1km/h - 3.7mph /  5.9km/h
Racha viento: 15.2mph /  24.5km/h - -
Viento- - SO
Presión: 30.1 in /  1020.0 hPa 30 in /  1014.4 hPa -
Precipitación: 0 in /  0.0 mm    
 
 
Tabla de datos para Abril 26, 2019
Hora Temperatura Punto de rocio Presión Viento Velocidad viento Racha viento Humedad Intensidad lluvia(por hora) Nubes
00:04 61 °F /  16.1 °C 39.4 °F /  4.1 °C 30in /  1015.7hPa SO 4mph /  6.5km/h 11.8mph /  19km/h 44.6% 0in /  0.0mm
00:09 61.3 °F /  16.3 °C 39.2 °F /  4 °C 30in /  1015.7hPa SO 5mph /  8km/h 12mph /  19.3km/h 44% 0in /  0.0mm
00:14 61.3 °F /  16.3 °C 39.2 °F /  4 °C 30in /  1015.7hPa SO 5.9mph /  9.5km/h 10.4mph /  16.7km/h 44% 0in /  0.0mm
00:19 61.3 °F /  16.3 °C 39.2 °F /  4 °C 30in /  1016.1hPa SO 5.9mph /  9.5km/h 10.7mph /  17.2km/h 44% 0in /  0.0mm
00:24 61.3 °F /  16.3 °C 39.2 °F /  4 °C 30in /  1016.1hPa SO 5.9mph /  9.5km/h 11mph /  17.7km/h 44% 0in /  0.0mm
00:29 61.2 °F /  16.2 °C 39.2 °F /  4 °C 30in /  1016.1hPa SSO 5.3mph /  8.5km/h 9mph /  14.5km/h 44% 0in /  0.0mm
00:34 61.2 °F /  16.2 °C 39 °F /  3.9 °C 30in /  1016.2hPa SO 4.7mph /  7.6km/h 9.2mph /  14.8km/h 44% 0in /  0.0mm
00:39 61.2 °F /  16.2 °C 39 °F /  3.9 °C 30in /  1016.2hPa SO 5mph /  8km/h 9mph /  14.5km/h 44% 0in /  0.0mm
00:44 61.2 °F /  16.2 °C 39 °F /  3.9 °C 30in /  1016.2hPa SO 5.2mph /  8.4km/h 8.5mph /  13.7km/h 44% 0in /  0.0mm
00:49 61 °F /  16.1 °C 39.2 °F /  4 °C 30in /  1016.2hPa Oeste 5.3mph /  8.5km/h 9mph /  14.5km/h 44.6% 0in /  0.0mm
00:54 60.6 °F /  15.9 °C 39.2 °F /  4 °C 30in /  1016.2hPa OSO 5.4mph /  8.7km/h 9.7mph /  15.6km/h 45% 0in /  0.0mm
00:59 60.4 °F /  15.8 °C 39 °F /  3.9 °C 30in /  1016.2hPa OSO 5.3mph /  8.5km/h 10mph /  16.1km/h 45% 0in /  0.0mm
01:04 60.3 °F /  15.7 °C 38.8 °F /  3.8 °C 30in /  1016.2hPa SO 5.2mph /  8.4km/h 10mph /  16.1km/h 45% 0in /  0.0mm
01:09 60.3 °F /  15.7 °C 38.8 °F /  3.8 °C 30in /  1016.1hPa OSO 4.9mph /  7.9km/h 8.5mph /  13.7km/h 45% 0in /  0.0mm
01:14 60.3 °F /  15.7 °C 39.2 °F /  4 °C 30in /  1016.1hPa Oeste 4.7mph /  7.6km/h 9mph /  14.5km/h 45.8% 0in /  0.0mm
01:19 60.1 °F /  15.6 °C 39 °F /  3.9 °C 30in /  1016.1hPa Oeste 5mph /  8km/h 11.5mph /  18.5km/h 45.8% 0in /  0.0mm
01:24 60.3 °F /  15.7 °C 38.8 °F /  3.8 °C 30in /  1016.0hPa Oeste 5.2mph /  8.4km/h 14.5mph /  23.3km/h 45% 0in /  0.0mm
01:29 60.4 °F /  15.8 °C 39 °F /  3.9 °C 30in /  1016.0hPa Oeste 6.1mph /  9.8km/h 14mph /  22.5km/h 45% 0in /  0.0mm
01:34 60.3 °F /  15.7 °C 38.8 °F /  3.8 °C 30in /  1016.2hPa Oeste 6.9mph /  11.1km/h 11.8mph /  19km/h 45% 0in /  0.0mm
01:39 60.1 °F /  15.6 °C 38.7 °F /  3.7 °C 30in /  1016.2hPa Oeste 6.2mph /  9.9km/h 12mph /  19.3km/h 45% 0in /  0.0mm
01:44 60.1 °F /  15.6 °C 38.7 °F /  3.7 °C 30in /  1016.2hPa SO 5.4mph /  8.7km/h 12mph /  19.3km/h 45.1% 0in /  0.0mm
01:49 59.9 °F /  15.5 °C 38.8 °F /  3.8 °C 30in /  1016.2hPa SO 5.8mph /  9.4km/h 12mph /  19.3km/h 45.6% 0in /  0.0mm
01:54 59.7 °F /  15.4 °C 39 °F /  3.9 °C 30in /  1016.2hPa OSO 6.2mph /  10km/h 13mph /  20.9km/h 46% 0in /  0.0mm
01:59 59.7 °F /  15.4 °C 38.3 °F /  3.5 °C 30in /  1016.2hPa OSO 6.3mph /  10.2km/h 13mph /  20.9km/h 45.1% 0in /  0.0mm
02:04 59.7 °F /  15.4 °C 38.3 °F /  3.5 °C 30in /  1016.3hPa SO 6.4mph /  10.3km/h 12mph /  19.3km/h 45% 0in /  0.0mm
02:09 59.7 °F /  15.4 °C 38.3 °F /  3.5 °C 30in /  1016.3hPa OSO 6.6mph /  10.7km/h 15mph /  24.1km/h 45% 0in /  0.0mm
02:14 59.5 °F /  15.3 °C 38.5 °F /  3.6 °C 30in /  1016.3hPa OSO 6.9mph /  11.1km/h 15mph /  24.1km/h 45.5% 0in /  0.0mm
02:19 59.4 °F /  15.2 °C 38.7 °F /  3.7 °C 30in /  1016.5hPa OSO 5.8mph /  9.3km/h 10mph /  16.1km/h 46% 0in /  0.0mm
02:24 59 °F /  15 °C 38.5 °F /  3.6 °C 30in /  1016.5hPa SO 4.7mph /  7.6km/h 8mph /  12.9km/h 46.6% 0in /  0.0mm
02:29 58.6 °F /  14.8 °C 38.5 °F /  3.6 °C 30in /  1016.5hPa SO 4.5mph /  7.2km/h 8.1mph /  13km/h 47% 0in /  0.0mm
02:34 58.5 °F /  14.7 °C 38.5 °F /  3.6 °C 30in /  1016.5hPa SO 4.3mph /  6.9km/h 8mph /  12.9km/h 47.4% 0in /  0.0mm
02:39 58.3 °F /  14.6 °C 38.7 °F /  3.7 °C 30in /  1016.5hPa SO 4.2mph /  6.7km/h 7mph /  11.3km/h 48% 0in /  0.0mm
02:44 57.9 °F /  14.4 °C 38.3 °F /  3.5 °C 30in /  1016.5hPa OSO 4mph /  6.5km/h 7.4mph /  11.9km/h 48% 0in /  0.0mm
02:49 57.9 °F /  14.4 °C 38.3 °F /  3.5 °C 30in /  1016.7hPa SO 3.5mph /  5.7km/h 7mph /  11.3km/h 48% 0in /  0.0mm
02:54 57.7 °F /  14.3 °C 38.1 °F /  3.4 °C 30in /  1016.7hPa SSO 3.1mph /  5km/h 6.9mph /  11.1km/h 48% 0in /  0.0mm
02:59 57.7 °F /  14.3 °C 38.1 °F /  3.4 °C 30in /  1016.7hPa SO 3mph /  4.8km/h 7mph /  11.3km/h 48% 0in /  0.0mm
03:04 57.7 °F /  14.3 °C 38.1 °F /  3.4 °C 30in /  1017.0hPa SO 2.9mph /  4.6km/h 7mph /  11.3km/h 48% 0in /  0.0mm
03:09 57.6 °F /  14.2 °C 38.3 °F /  3.5 °C 30in /  1017.0hPa ESE 2.9mph /  4.6km/h 6.2mph /  10km/h 48.6% 0in /  0.0mm
03:14 57.4 °F /  14.1 °C 38.3 °F /  3.5 °C 30in /  1017.0hPa SSE 2.9mph /  4.7km/h 6.2mph /  10km/h 49% 0in /  0.0mm
03:19 57 °F /  13.9 °C 38.1 °F /  3.4 °C 30in /  1017.2hPa SE 3mph /  4.8km/h 6mph /  9.7km/h 49% 0in /  0.0mm
03:24 57 °F /  13.9 °C 38.3 °F /  3.5 °C 30in /  1017.2hPa Sur 3.1mph /  5km/h 5.2mph /  8.4km/h 49.8% 0in /  0.0mm
03:29 56.8 °F /  13.8 °C 38.5 °F /  3.6 °C 30in /  1017.2hPa Sur 3.1mph /  5km/h 8.1mph /  13km/h 50% 0in /  0.0mm
03:34 56.8 °F /  13.8 °C 38.5 °F /  3.6 °C 30in /  1017.2hPa SO 3.1mph /  5km/h 8.1mph /  13km/h 50% 0in /  0.0mm
03:39 56.8 °F /  13.8 °C 38.1 °F /  3.4 °C 30in /  1017.1hPa SO 3.7mph /  6km/h 7.4mph /  11.9km/h 49.3% 0in /  0.0mm
03:44 57 °F /  13.9 °C 37.9 °F /  3.3 °C 30in /  1017.1hPa SSO 4.3mph /  6.9km/h 7mph /  11.3km/h 49% 0in /  0.0mm
03:49 57 °F /  13.9 °C 37.9 °F /  3.3 °C 30in /  1017.1hPa SSO 4.3mph /  6.9km/h 6.2mph /  10km/h 49% 0in /  0.0mm
03:54 56.8 °F /  13.8 °C 37.9 °F /  3.3 °C 30in /  1017.1hPa SO 4.3mph /  6.9km/h 6.2mph /  10km/h 49.1% 0in /  0.0mm
03:59 56.7 °F /  13.7 °C 38.3 °F /  3.5 °C 30in /  1017.1hPa OSO 3.9mph /  6.3km/h 8.1mph /  13km/h 50% 0in /  0.0mm
04:04 56.7 °F /  13.7 °C 38.1 °F /  3.4 °C 30in /  1017.2hPa ONO 3.6mph /  5.8km/h 12.7mph /  20.4km/h 50% 0in /  0.0mm
04:09 56.7 °F /  13.7 °C 37.9 °F /  3.3 °C 30in /  1017.2hPa Oeste 4.5mph /  7.3km/h 15mph /  24.1km/h 49.2% 0in /  0.0mm
04:14 56.7 °F /  13.7 °C 38.1 °F /  3.4 °C 30in /  1017.2hPa OSO 5.4mph /  8.7km/h 15mph /  24.1km/h 49.8% 0in /  0.0mm
04:19 56.5 °F /  13.6 °C 37.9 °F /  3.3 °C 30in /  1017.2hPa SO 4.5mph /  7.2km/h 6.2mph /  10km/h 50% 0in /  0.0mm
04:24 56.1 °F /  13.4 °C 37.9 °F /  3.3 °C 30in /  1017.2hPa SSO 3.6mph /  5.8km/h 7.4mph /  11.9km/h 50.6% 0in /  0.0mm
04:29 55.9 °F /  13.3 °C 38.1 °F /  3.4 °C 30in /  1017.2hPa SSO 3.9mph /  6.3km/h 10.4mph /  16.7km/h 51% 0in /  0.0mm
04:34 55.9 °F /  13.3 °C 37.8 °F /  3.2 °C 30in /  1017.3hPa OSO 4.3mph /  6.9km/h 10.4mph /  16.7km/h 50.4% 0in /  0.0mm
04:39 56.1 °F /  13.4 °C 37.8 °F /  3.2 °C 30in /  1017.3hPa OSO 5.1mph /  8.2km/h 10mph /  16.1km/h 50% 0in /  0.0mm
04:44 55.9 °F /  13.3 °C 37.8 °F /  3.2 °C 30in /  1017.3hPa Oeste 5.9mph /  9.5km/h 15.2mph /  24.5km/h 50.1% 0in /  0.0mm
04:49 55.8 °F /  13.2 °C 37.9 °F /  3.3 °C 30.1in /  1017.5hPa OSO 6.1mph /  9.8km/h 15mph /  24.1km/h 51% 0in /  0.0mm
04:54 55.6 °F /  13.1 °C 37.8 °F /  3.2 °C 30.1in /  1017.5hPa OSO 6.2mph /  10km/h 14mph /  22.5km/h 51% 0in /  0.0mm
04:59 55.6 °F /  13.1 °C 37.8 °F /  3.2 °C 30.1in /  1017.5hPa OSO 6mph /  9.7km/h 11mph /  17.7km/h 51% 0in /  0.0mm
05:04 55.6 °F /  13.1 °C 37.8 °F /  3.2 °C 30.1in /  1017.6hPa OSO 5.9mph /  9.5km/h 10.7mph /  17.2km/h 51% 0in /  0.0mm
05:09 55.4 °F /  13 °C 37.6 °F /  3.1 °C 30.1in /  1017.6hPa OSO 5.9mph /  9.5km/h 11mph /  17.7km/h 51% 0in /  0.0mm
05:14 55.2 °F /  12.9 °C 37.4 °F /  3 °C 30.1in /  1017.6hPa OSO 5.9mph /  9.5km/h 11.5mph /  18.5km/h 51.1% 0in /  0.0mm
05:19 55.2 °F /  12.9 °C 37.9 °F /  3.3 °C 30.1in /  1017.6hPa SO 6mph /  9.7km/h 12mph /  19.3km/h 52% 0in /  0.0mm
05:24 55.2 °F /  12.9 °C 37.8 °F /  3.2 °C 30.1in /  1017.6hPa SO 6.2mph /  10km/h 11mph /  17.7km/h 52% 0in /  0.0mm
05:29 55 °F /  12.8 °C 37.8 °F /  3.2 °C 30.1in /  1017.6hPa SO 4.9mph /  7.9km/h 6mph /  9.7km/h 52% 0in /  0.0mm
05:34 54.9 °F /  12.7 °C 37.9 °F /  3.3 °C 30.1in /  1017.8hPa Sur 3.6mph /  5.8km/h 6mph /  9.7km/h 52.7% 0in /  0.0mm
05:39 54.7 °F /  12.6 °C 37.9 °F /  3.3 °C 30.1in /  1017.8hPa SO 3.8mph /  6.1km/h 6mph /  9.7km/h 53% 0in /  0.0mm
05:44 54.5 °F /  12.5 °C 37.6 °F /  3.1 °C 30.1in /  1017.8hPa SO 4mph /  6.5km/h 6mph /  9.7km/h 53% 0in /  0.0mm
05:49 54.3 °F /  12.4 °C 37.6 °F /  3.1 °C 30.1in /  1017.8hPa SSO 3.5mph /  5.7km/h 6mph /  9.7km/h 53.1% 0in /  0.0mm
05:54 54.1 °F /  12.3 °C 37.8 °F /  3.2 °C 30.1in /  1017.8hPa SSO 3.1mph /  5km/h 8.1mph /  13km/h 54% 0in /  0.0mm
05:59 54.1 °F /  12.3 °C 37.8 °F /  3.2 °C 30.1in /  1017.8hPa SSO 4mph /  6.5km/h 9.2mph /  14.8km/h 54% 0in /  0.0mm
06:04 54 °F /  12.2 °C 37.8 °F /  3.2 °C 30.1in /  1017.8hPa SSO 4.7mph /  7.6km/h 10.4mph /  16.7km/h 54% 0in /  0.0mm
06:09 54 °F /  12.2 °C 37.8 °F /  3.2 °C 30.1in /  1017.7hPa SO 5.6mph /  9km/h 10mph /  16.1km/h 54% 0in /  0.0mm
06:14 54 °F /  12.2 °C 37.8 °F /  3.2 °C 30.1in /  1017.7hPa SO 6.4mph /  10.3km/h 10mph /  16.1km/h 54% 0in /  0.0mm
06:19 54 °F /  12.2 °C 37.8 °F /  3.2 °C 30.1in /  1017.9hPa SO 5.8mph /  9.3km/h 10mph /  16.1km/h 54% 0in /  0.0mm
06:24 54 °F /  12.2 °C 37.8 °F /  3.2 °C 30.1in /  1017.9hPa SO 5.2mph /  8.4km/h 9.2mph /  14.8km/h 54% 0in /  0.0mm
06:29 54.1 °F /  12.3 °C 37.8 °F /  3.2 °C 30.1in /  1017.9hPa SO 5.2mph /  8.4km/h 9mph /  14.5km/h 54% 0in /  0.0mm
06:34 54.1 °F /  12.3 °C 37.4 °F /  3 °C 30.1in /  1018.0hPa SO 5.2mph /  8.4km/h 8mph /  12.9km/h 53% 0in /  0.0mm
06:39 54.1 °F /  12.3 °C 37.6 °F /  3.1 °C 30.1in /  1018.0hPa SO 4.7mph /  7.6km/h 6.9mph /  11.1km/h 53.4% 0in /  0.0mm
06:44 54.1 °F /  12.3 °C 37.8 °F /  3.2 °C 30.1in /  1018.0hPa SO 4.3mph /  6.9km/h 7.6mph /  12.2km/h 54% 0in /  0.0mm
06:49 54 °F /  12.2 °C 37.6 °F /  3.1 °C 30.1in /  1018.3hPa SO 4.3mph /  6.9km/h 8mph /  12.9km/h 54% 0in /  0.0mm
06:54 53.6 °F /  12 °C 37.4 °F /  3 °C 30.1in /  1018.3hPa SO 4.3mph /  6.9km/h 7mph /  11.3km/h 54.4% 0in /  0.0mm
06:59 53.2 °F /  11.8 °C 37.6 °F /  3.1 °C 30.1in /  1018.3hPa SO 4.2mph /  6.7km/h 6mph /  9.7km/h 55% 0in /  0.0mm
07:04 53.1 °F /  11.7 °C 37.4 °F /  3 °C 30.1in /  1018.3hPa SO 4mph /  6.5km/h 6.9mph /  11.1km/h 55.2% 0in /  0.0mm
07:09 53.1 °F /  11.7 °C 37.8 °F /  3.2 °C 30.1in /  1018.2hPa SO 4mph /  6.5km/h 7mph /  11.3km/h 56% 0in /  0.0mm
07:14 52.9 °F /  11.6 °C 37.6 °F /  3.1 °C 30.1in /  1018.2hPa SO 4mph /  6.5km/h 6.2mph /  10km/h 56% 0in /  0.0mm
07:19 52.5 °F /  11.4 °C 37.4 °F /  3 °C 30.1in /  1018.4hPa SO 4mph /  6.5km/h 6.2mph /  10km/h 56% 0in /  0.0mm
07:24 52.3 °F /  11.3 °C 37.6 °F /  3.1 °C 30.1in /  1018.4hPa SO 4mph /  6.5km/h 6.2mph /  10km/h 56.8% 0in /  0.0mm
07:29 52.3 °F /  11.3 °C 37.6 °F /  3.1 °C 30.1in /  1018.4hPa SO 4.2mph /  6.7km/h 6mph /  9.7km/h 57% 0in /  0.0mm
07:34 52.3 °F /  11.3 °C 37.6 °F /  3.1 °C 30.1in /  1018.4hPa SO 4.3mph /  6.9km/h 6mph /  9.7km/h 57% 0in /  0.0mm
07:39 52.3 °F /  11.3 °C 37.4 °F /  3 °C 30.1in /  1018.4hPa SO 3.7mph /  5.9km/h 6mph /  9.7km/h 57% 0in /  0.0mm
07:44 52 °F /  11.1 °C 37.4 °F /  3 °C 30.1in /  1018.4hPa OSO 3.1mph /  5km/h 5mph /  8km/h 57.4% 0in /  0.0mm
07:49 51.4 °F /  10.8 °C 37.4 °F /  3 °C 30.1in /  1018.8hPa Oeste 3.1mph /  5km/h 5.2mph /  8.4km/h 58.5% 0in /  0.0mm
07:54 50.9 °F /  10.5 °C 37.4 °F /  3 °C 30.1in /  1018.8hPa Oeste 3.1mph /  5km/h 5mph /  8km/h 59.5% 0in /  0.0mm
07:59 50.4 °F /  10.2 °C 37.2 °F /  2.9 °C 30.1in /  1018.8hPa Oeste 3mph /  4.8km/h 5.2mph /  8.4km/h 60.6% 0in /  0.0mm
08:04 49.8 °F /  9.9 °C 37.2 °F /  2.9 °C 30.1in /  1018.9hPa Oeste 2.9mph /  4.6km/h 5mph /  8km/h 61.7% 0in /  0.0mm
08:09 49.5 °F /  9.7 °C 37.2 °F /  2.9 °C 30.1in /  1018.9hPa Oeste 2.9mph /  4.7km/h 5mph /  8km/h 62.5% 0in /  0.0mm
08:14 49.3 °F /  9.6 °C 37.2 °F /  2.9 °C 30.1in /  1018.9hPa ONO 2.9mph /  4.6km/h 5.9mph /  9.5km/h 63% 0in /  0.0mm
08:19 49.1 °F /  9.5 °C 37.2 °F /  2.9 °C 30.1in /  1019.1hPa Oeste 3.2mph /  5.2km/h 6.4mph /  10.3km/h 63.3% 0in /  0.0mm
08:24 49.3 °F /  9.6 °C 37.2 °F /  2.9 °C 30.1in /  1019.1hPa Oeste 3.6mph /  5.8km/h 7mph /  11.3km/h 63.2% 0in /  0.0mm
08:29 49.3 °F /  9.6 °C 37.2 °F /  2.9 °C 30.1in /  1019.1hPa Oeste 3.4mph /  5.4km/h 5.2mph /  8.4km/h 63% 0in /  0.0mm
08:34 49.5 °F /  9.7 °C 37.4 °F /  3 °C 30.1in /  1019.2hPa Oeste 3.1mph /  5km/h 5mph /  8km/h 63% 0in /  0.0mm
08:39 49.5 °F /  9.7 °C 37.4 °F /  3 °C 30.1in /  1019.2hPa ONO 3mph /  4.8km/h 5.8mph /  9.3km/h 63% 0in /  0.0mm
08:44 49.6 °F /  9.8 °C 37.6 °F /  3.1 °C 30.1in /  1019.2hPa ONO 2.9mph /  4.6km/h 6mph /  9.7km/h 63% 0in /  0.0mm
08:49 49.6 °F /  9.8 °C 37.4 °F /  3 °C 30.1in /  1019.3hPa ONO 3mph /  4.8km/h 5mph /  8km/h 62.4% 0in /  0.0mm
08:54 49.8 °F /  9.9 °C 37.4 °F /  3 °C 30.1in /  1019.3hPa ONO 3.1mph /  5km/h 5mph /  8km/h 62% 0in /  0.0mm
08:59 50.2 °F /  10.1 °C 37.8 °F /  3.2 °C 30.1in /  1019.3hPa ONO 3mph /  4.8km/h 5mph /  8km/h 62% 0in /  0.0mm
09:04 50.4 °F /  10.2 °C 37.8 °F /  3.2 °C 30.1in /  1019.5hPa Oeste 2.9mph /  4.6km/h 6.2mph /  10km/h 62% 0in /  0.0mm
09:09 50.2 °F /  10.1 °C 37.8 °F /  3.2 °C 30.1in /  1019.5hPa Oeste 3mph /  4.8km/h 6mph /  9.7km/h 62% 0in /  0.0mm
09:14 50.4 °F /  10.2 °C 37.6 °F /  3.1 °C 30.1in /  1019.5hPa Oeste 3.1mph /  5km/h 6.2mph /  10km/h 61.6% 0in /  0.0mm
09:19 50.4 °F /  10.2 °C 37.6 °F /  3.1 °C 30.1in /  1019.5hPa Oeste 3.1mph /  5km/h 6mph /  9.7km/h 61.5% 0in /  0.0mm
09:24 50.5 °F /  10.3 °C 37.8 °F /  3.2 °C 30.1in /  1019.5hPa Oeste 3.1mph /  5km/h 5mph /  8km/h 61.4% 0in /  0.0mm
09:29 50.9 °F /  10.5 °C 37.9 °F /  3.3 °C 30.1in /  1019.5hPa Oeste 2.7mph /  4.4km/h 5mph /  8km/h 61% 0in /  0.0mm
09:34 51.1 °F /  10.6 °C 38.1 °F /  3.4 °C 30.1in /  1019.5hPa Oeste 2.4mph /  3.9km/h 4.6mph /  7.4km/h 61% 0in /  0.0mm
09:39 51.4 °F /  10.8 °C 38.1 °F /  3.4 °C 30.1in /  1019.5hPa ONO 2.4mph /  3.9km/h 5mph /  8km/h 60.3% 0in /  0.0mm
09:44 51.8 °F /  11 °C 38.3 °F /  3.5 °C 30.1in /  1019.5hPa Oeste 2.4mph /  3.9km/h 5mph /  8km/h 60% 0in /  0.0mm
09:49 52.2 °F /  11.2 °C 38.3 °F /  3.5 °C 30.1in /  1019.7hPa Oeste 2.7mph /  4.3km/h 5.8mph /  9.3km/h 59% 0in /  0.0mm
09:54 52.3 °F /  11.3 °C 38.5 °F /  3.6 °C 30.1in /  1019.7hPa Oeste 2.9mph /  4.6km/h 6mph /  9.7km/h 59% 0in /  0.0mm
09:59 52.7 °F /  11.5 °C 38.5 °F /  3.6 °C 30.1in /  1019.7hPa Oeste 2.6mph /  4.2km/h 5mph /  8km/h 58.2% 0in /  0.0mm
10:04 53.1 °F /  11.7 °C 38.3 °F /  3.5 °C 30.1in /  1019.7hPa Oeste 2.4mph /  3.9km/h 4.7mph /  7.6km/h 57.3% 0in /  0.0mm
10:09 53.2 °F /  11.8 °C 38.5 °F /  3.6 °C 30.1in /  1019.7hPa OSO 2.4mph /  3.9km/h 5mph /  8km/h 56.9% 0in /  0.0mm
10:14 54 °F /  12.2 °C 38.5 °F /  3.6 °C 30.1in /  1019.7hPa SSO 2.4mph /  3.9km/h 5mph /  8km/h 56% 0in /  0.0mm
10:19 54.3 °F /  12.4 °C 38.7 °F /  3.7 °C 30.1in /  1019.8hPa OSO 2.2mph /  3.5km/h 5.2mph /  8.4km/h 55.3% 0in /  0.0mm
10:24 54.5 °F /  12.5 °C 38.3 °F /  3.5 °C 30.1in /  1019.8hPa OSO 2mph /  3.2km/h 5mph /  8km/h 54% 0in /  0.0mm
10:29 54.7 °F /  12.6 °C 38.5 °F /  3.6 °C 30.1in /  1019.8hPa OSO 2.5mph /  4km/h 5.8mph /  9.3km/h 54% 0in /  0.0mm
10:34 54.9 °F /  12.7 °C 38.1 °F /  3.4 °C 30.1in /  1019.9hPa OSO 2.9mph /  4.6km/h 6mph /  9.7km/h 53.3% 0in /  0.0mm
10:39 55 °F /  12.8 °C 38.1 °F /  3.4 °C 30.1in /  1019.9hPa OSO 3.2mph /  5.2km/h 6mph /  9.7km/h 53% 0in /  0.0mm
10:44 55 °F /  12.8 °C 38.1 °F /  3.4 °C 30.1in /  1019.9hPa OSO 3.6mph /  5.8km/h 6.9mph /  11.1km/h 53% 0in /  0.0mm
10:49 55 °F /  12.8 °C 38.3 °F /  3.5 °C 30.1in /  1019.9hPa SO 4mph /  6.4km/h 7mph /  11.3km/h 53.1% 0in /  0.0mm
10:54 55.2 °F /  12.9 °C 38.5 °F /  3.6 °C 30.1in /  1019.9hPa SO 4.3mph /  6.9km/h 6mph /  9.7km/h 53% 0in /  0.0mm
10:59 55.6 °F /  13.1 °C 38.7 °F /  3.7 °C 30.1in /  1019.9hPa SO 3.9mph /  6.3km/h 6mph /  9.7km/h 53% 0in /  0.0mm
11:04 55.9 °F /  13.3 °C 38.8 °F /  3.8 °C 30.1in /  1020.0hPa OSO 3.6mph /  5.8km/h 5mph /  8km/h 52.4% 0in /  0.0mm
11:09 56.1 °F /  13.4 °C 38.7 °F /  3.7 °C 30.1in /  1020.0hPa OSO 3mph /  4.8km/h 5.8mph /  9.3km/h 52% 0in /  0.0mm
11:14 56.3 °F /  13.5 °C 38.7 °F /  3.7 °C 30.1in /  1020.0hPa SO 2.4mph /  3.9km/h 6.2mph /  10km/h 51.6% 0in /  0.0mm
11:19 56.7 °F /  13.7 °C 38.7 °F /  3.7 °C 30.1in /  1020.0hPa SO 2.6mph /  4.2km/h 6mph /  9.7km/h 51% 0in /  0.0mm
11:24 57.2 °F /  14 °C 38.8 °F /  3.8 °C 30.1in /  1020.0hPa OSO 2.9mph /  4.6km/h 6.4mph /  10.3km/h 50.2% 0in /  0.0mm
11:29 57.6 °F /  14.2 °C 38.5 °F /  3.6 °C 30.1in /  1020.0hPa SO 3mph /  4.8km/h 7mph /  11.3km/h 49.1% 0in /  0.0mm
11:34 57.6 °F /  14.2 °C 38.5 °F /  3.6 °C 30.1in /  1020.0hPa Oeste 3.1mph /  5km/h 6.9mph /  11.1km/h 49% 0in /  0.0mm
11:39 57.6 °F /  14.2 °C 38.5 °F /  3.6 °C 30.1in /  1019.9hPa OSO 3.5mph /  5.7km/h 7.4mph /  11.9km/h 48.8% 0in /  0.0mm
11:44 57.7 °F /  14.3 °C 38.3 °F /  3.5 °C 30.1in /  1019.9hPa Oeste 4mph /  6.5km/h 7.4mph /  11.9km/h 48.5% 0in /  0.0mm
11:49 57.7 °F /  14.3 °C 38.3 °F /  3.5 °C 30.1in /  1019.9hPa ONO 3.8mph /  6.1km/h 7mph /  11.3km/h 48% 0in /  0.0mm
11:54 58.1 °F /  14.5 °C 38.5 °F /  3.6 °C 30.1in /  1019.8hPa OSO 3.6mph /  5.8km/h 7mph /  11.3km/h 47.9% 0in /  0.0mm
11:59 58.5 °F /  14.7 °C 38.3 °F /  3.5 °C 30.1in /  1019.8hPa OSO 2.7mph /  4.3km/h 8.1mph /  13km/h 47% 0in /  0.0mm
12:04 58.6 °F /  14.8 °C 37.9 °F /  3.3 °C 30.1in /  1019.8hPa ONO 2mph /  3.2km/h 8mph /  12.9km/h 46.1% 0in /  0.0mm
12:09 58.6 °F /  14.8 °C 38.5 °F /  3.6 °C 30.1in /  1019.7hPa SSO 3mph /  4.9km/h 7mph /  11.3km/h 47% 0in /  0.0mm
12:14 58.8 °F /  14.9 °C 38.3 °F /  3.5 °C 30.1in /  1019.7hPa SO 4mph /  6.5km/h 6mph /  9.7km/h 46.3% 0in /  0.0mm
12:19 59.2 °F /  15.1 °C 38.5 °F /  3.6 °C 30.1in /  1019.7hPa OSO 3.2mph /  5.1km/h 5.9mph /  9.5km/h 46% 0in /  0.0mm
12:24 59.4 °F /  15.2 °C 38.3 °F /  3.5 °C 30.1in /  1019.4hPa OSO 2.4mph /  3.9km/h 6.9mph /  11.1km/h 45.6% 0in /  0.0mm
12:29 59.5 °F /  15.3 °C 38.7 °F /  3.7 °C 30.1in /  1019.4hPa SSO 2.7mph /  4.4km/h 7mph /  11.3km/h 45.6% 0in /  0.0mm
12:34 59.9 °F /  15.5 °C 38.5 °F /  3.6 °C 30.1in /  1019.4hPa Oeste 3.1mph /  5km/h 7mph /  11.3km/h 45% 0in /  0.0mm
12:39 59.7 °F /  15.4 °C 38.3 °F /  3.5 °C 30.1in /  1019.2hPa Oeste 3.4mph /  5.4km/h 7mph /  11.3km/h 45% 0in /  0.0mm
12:44 59.9 °F /  15.5 °C 38.5 °F /  3.6 °C 30.1in /  1019.2hPa Oeste 3.6mph /  5.8km/h 7.4mph /  11.9km/h 45% 0in /  0.0mm
12:49 60.3 °F /  15.7 °C 38.5 °F /  3.6 °C 30.1in /  1019.2hPa SO 3.2mph /  5.2km/h 8.1mph /  13km/h 44.6% 0in /  0.0mm
12:54 60.4 °F /  15.8 °C 38.5 °F /  3.6 °C 30.1in /  1018.9hPa OSO 2.9mph /  4.7km/h 8mph /  12.9km/h 44% 0in /  0.0mm
12:59 60.6 °F /  15.9 °C 38.7 °F /  3.7 °C 30.1in /  1018.9hPa ONO 3.3mph /  5.3km/h 7mph /  11.3km/h 44% 0in /  0.0mm
13:04 60.6 °F /  15.9 °C 38.7 °F /  3.7 °C 30.1in /  1018.9hPa ONO 3.6mph /  5.8km/h 6mph /  9.7km/h 44% 0in /  0.0mm
13:09 61.2 °F /  16.2 °C 38.8 °F /  3.8 °C 30.1in /  1018.7hPa ONO 3.2mph /  5.2km/h 6.4mph /  10.3km/h 43.8% 0in /  0.0mm
13:14 61.3 °F /  16.3 °C 38.7 °F /  3.7 °C 30.1in /  1018.7hPa Oeste 2.9mph /  4.6km/h 7mph /  11.3km/h 43% 0in /  0.0mm
13:19 61.3 °F /  16.3 °C 38.8 °F /  3.8 °C 30.1in /  1018.7hPa OSO 3.4mph /  5.5km/h 6mph /  9.7km/h 43.2% 0in /  0.0mm
13:24 61.7 °F /  16.5 °C 39.2 °F /  4 °C 30.1in /  1018.4hPa OSO 4mph /  6.5km/h 6.9mph /  11.1km/h 43.2% 0in /  0.0mm
13:29 61.9 °F /  16.6 °C 39 °F /  3.9 °C 30.1in /  1018.4hPa Oeste 3.8mph /  6.1km/h 7mph /  11.3km/h 43% 0in /  0.0mm
13:34 62.1 °F /  16.7 °C 39.4 °F /  4.1 °C 30.1in /  1018.4hPa NO 3.6mph /  5.8km/h 5mph /  8km/h 43% 0in /  0.0mm
13:39 62.6 °F /  17 °C 39.6 °F /  4.2 °C 30.1in /  1018.1hPa NO 2.5mph /  4km/h 6.2mph /  10km/h 42.6% 0in /  0.0mm
13:44 63 °F /  17.2 °C 39.6 °F /  4.2 °C 30.1in /  1018.1hPa Oeste 1.4mph /  2.2km/h 6mph /  9.7km/h 41.9% 0in /  0.0mm
13:49 63.3 °F /  17.4 °C 39.7 °F /  4.3 °C 30.1in /  1018.1hPa ONO 1.7mph /  2.7km/h 6mph /  9.7km/h 42% 0in /  0.0mm
13:54 63.9 °F /  17.7 °C 39.9 °F /  4.4 °C 30.1in /  1017.8hPa OSO 2mph /  3.2km/h 5.9mph /  9.5km/h 41.2% 0in /  0.0mm
13:59 64.2 °F /  17.9 °C 40.1 °F /  4.5 °C 30.1in /  1017.8hPa SE 2mph /  3.2km/h 6mph /  9.7km/h 41% 0in /  0.0mm
14:04 64.6 °F /  18.1 °C 40.3 °F /  4.6 °C 30.1in /  1017.8hPa ENE 2mph /  3.2km/h 3.5mph /  5.6km/h 40.8% 0in /  0.0mm
14:09 64.9 °F /  18.3 °C 39.9 °F /  4.4 °C 30in /  1017.3hPa NO 1.9mph /  3.1km/h 5.9mph /  9.5km/h 40.1% 0in /  0.0mm
14:14 64.8 °F /  18.2 °C 39.9 °F /  4.4 °C 30in /  1017.3hPa Oeste 1.8mph /  2.9km/h 6.2mph /  10km/h 40.2% 0in /  0.0mm
14:19 64.6 °F /  18.1 °C 40.3 °F /  4.6 °C 30in /  1017.3hPa NNE 2.5mph /  4km/h 6mph /  9.7km/h 41% 0in /  0.0mm
14:24 64.4 °F /  18 °C 40.1 °F /  4.5 °C 30in /  1017.0hPa NNE 3.1mph /  5km/h 5mph /  8km/h 41% 0in /  0.0mm
14:29 64.6 °F /  18.1 °C 40.3 °F /  4.6 °C 30in /  1017.0hPa Oeste 2.7mph /  4.4km/h 5.8mph /  9.3km/h 41% 0in /  0.0mm
14:34 64.8 °F /  18.2 °C 40.5 °F /  4.7 °C 30in /  1017.0hPa OSO 2.4mph /  3.9km/h 6mph /  9.7km/h 41% 0in /  0.0mm
14:39 64.8 °F /  18.2 °C 40.6 °F /  4.8 °C 30in /  1016.8hPa SO 2.4mph /  3.9km/h 6mph /  9.7km/h 41% 0in /  0.0mm
14:44 65.1 °F /  18.4 °C 40.8 °F /  4.9 °C 30in /  1016.8hPa Oeste 2.4mph /  3.9km/h 5.8mph /  9.3km/h 41% 0in /  0.0mm
14:49 65.5 °F /  18.6 °C 41.2 °F /  5.1 °C 30in /  1016.8hPa SO 2.4mph /  3.9km/h 6mph /  9.7km/h 41% 0in /  0.0mm
14:54 65.8 °F /  18.8 °C 41.5 °F /  5.3 °C 30in /  1016.6hPa SSO 2.4mph /  3.9km/h 5mph /  8km/h 41% 0in /  0.0mm
14:59 66.4 °F /  19.1 °C 41.2 °F /  5.1 °C 30in /  1016.6hPa OSO 2.2mph /  3.5km/h 6.9mph /  11.1km/h 40% 0in /  0.0mm
15:04 66.6 °F /  19.2 °C 41.4 °F /  5.2 °C 30in /  1016.6hPa Oeste 2mph /  3.2km/h 7.4mph /  11.9km/h 39.9% 0in /  0.0mm
15:09 66.4 °F /  19.1 °C 41 °F /  5 °C 30in /  1016.3hPa NO 2.5mph /  4.1km/h 7mph /  11.3km/h 39.5% 0in /  0.0mm
15:14 66.2 °F /  19 °C 41.2 °F /  5.1 °C 30in /  1016.3hPa NO 3.1mph /  5km/h 6mph /  9.7km/h 40% 0in /  0.0mm
15:19 66.2 °F /  19 °C 41.2 °F /  5.1 °C 30in /  1016.3hPa ONO 3mph /  4.8km/h 6mph /  9.7km/h 40% 0in /  0.0mm
15:24 66.6 °F /  19.2 °C 41.4 °F /  5.2 °C 30in /  1016.0hPa ONO 2.9mph /  4.6km/h 5.4mph /  8.7km/h 40% 0in /  0.0mm
15:29 66.9 °F /  19.4 °C 41.4 °F /  5.2 °C 30in /  1016.0hPa OSO 2.4mph /  3.9km/h 6mph /  9.7km/h 39.5% 0in /  0.0mm
15:34 67.3 °F /  19.6 °C 41.4 °F /  5.2 °C 30in /  1016.0hPa OSO 2mph /  3.2km/h 6.9mph /  11.1km/h 39% 0in /  0.0mm
15:39 67.5 °F /  19.7 °C 41.5 °F /  5.3 °C 30in /  1016.0hPa Oeste 3mph /  4.8km/h 7mph /  11.3km/h 39% 0in /  0.0mm
15:44 67.3 °F /  19.6 °C 41.5 °F /  5.3 °C 30in /  1016.0hPa Oeste 4mph /  6.5km/h 6.9mph /  11.1km/h 39% 0in /  0.0mm
15:49 67.1 °F /  19.5 °C 41.5 °F /  5.3 °C 30in /  1016.0hPa NO 4.2mph /  6.7km/h 7mph /  11.3km/h 39.3% 0in /  0.0mm
15:54 67.3 °F /  19.6 °C 41.5 °F /  5.3 °C 30in /  1015.9hPa NO 4.3mph /  6.9km/h 7mph /  11.3km/h 39.2% 0in /  0.0mm
15:59 67.5 °F /  19.7 °C 41.5 °F /  5.3 °C 30in /  1015.9hPa NO 3mph /  4.8km/h 5mph /  8km/h 39% 0in /  0.0mm
16:04 67.5 °F /  19.7 °C 41.7 °F /  5.4 °C 30in /  1015.9hPa NE 2mph /  3.2km/h 6.2mph /  10km/h 39.3% 0in /  0.0mm
16:09 67.3 °F /  19.6 °C 42.1 °F /  5.6 °C 30in /  1015.8hPa NE 2.6mph /  4.2km/h 6.9mph /  11.1km/h 40% 0in /  0.0mm
16:14 67.1 °F /  19.5 °C 42.1 °F /  5.6 °C 30in /  1015.8hPa NNE 3.1mph /  5km/h 7mph /  11.3km/h 40% 0in /  0.0mm
16:19 67.1 °F /  19.5 °C 41.9 °F /  5.5 °C 30in /  1015.8hPa NNE 3.1mph /  5km/h 7mph /  11.3km/h 40% 0in /  0.0mm
16:24 67.3 °F /  19.6 °C 42.1 °F /  5.6 °C 30in /  1015.6hPa North 3.1mph /  5km/h 5mph /  8km/h 40% 0in /  0.0mm
16:29 67.5 °F /  19.7 °C 42.3 °F /  5.7 °C 30in /  1015.6hPa NNO 2.5mph /  4.1km/h 5mph /  8km/h 39.8% 0in /  0.0mm
16:34 67.6 °F /  19.8 °C 41.9 °F /  5.5 °C 30in /  1015.7hPa ONO 2mph /  3.2km/h 4mph /  6.4km/h 39% 0in /  0.0mm
16:39 67.8 °F /  19.9 °C 41.9 °F /  5.5 °C 30in /  1015.7hPa ONO 1.9mph /  3.1km/h 3.6mph /  5.8km/h 39% 0in /  0.0mm
16:44 67.8 °F /  19.9 °C 41.9 °F /  5.5 °C 30in /  1015.7hPa ONO 1.8mph /  2.9km/h 4mph /  6.4km/h 39% 0in /  0.0mm
16:49 67.8 °F /  19.9 °C 41.9 °F /  5.5 °C 30in /  1015.7hPa North 1.8mph /  2.9km/h 4.7mph /  7.6km/h 39% 0in /  0.0mm
16:54 67.8 °F /  19.9 °C 42.4 °F /  5.8 °C 30in /  1015.5hPa NNE 1.8mph /  2.9km/h 5.8mph /  9.3km/h 39.7% 0in /  0.0mm
16:59 68 °F /  20 °C 42.8 °F /  6 °C 30in /  1015.5hPa North 1.9mph /  3.1km/h 6mph /  9.7km/h 40% 0in /  0.0mm
17:04 68.4 °F /  20.2 °C 43 °F /  6.1 °C 30in /  1015.5hPa NNE 2mph /  3.2km/h 6.4mph /  10.3km/h 40% 0in /  0.0mm
17:09 67.8 °F /  19.9 °C 43.2 °F /  6.2 °C 30in /  1015.3hPa NE 2.9mph /  4.6km/h 6.9mph /  11.1km/h 40.9% 0in /  0.0mm
17:14 67.5 °F /  19.7 °C 43.3 °F /  6.3 °C 30in /  1015.3hPa NE 3.6mph /  5.8km/h 7mph /  11.3km/h 41.8% 0in /  0.0mm
17:19 67.1 °F /  19.5 °C 43.3 °F /  6.3 °C 30in /  1015.3hPa NE 3.4mph /  5.4km/h 6mph /  9.7km/h 42.3% 0in /  0.0mm
17:24 67.1 °F /  19.5 °C 43.3 °F /  6.3 °C 30in /  1015.1hPa NE 3.1mph /  5km/h 5mph /  8km/h 42% 0in /  0.0mm
17:29 67.3 °F /  19.6 °C 43.7 °F /  6.5 °C 30in /  1015.1hPa NE 2.5mph /  4km/h 4.6mph /  7.4km/h 42.5% 0in /  0.0mm
17:34 67.3 °F /  19.6 °C 43.3 °F /  6.3 °C 30in /  1015.1hPa NNE 2mph /  3.2km/h 5mph /  8km/h 42% 0in /  0.0mm
17:39 67.5 °F /  19.7 °C 43.9 °F /  6.6 °C 30in /  1015.1hPa Oeste 2mph /  3.2km/h 6.9mph /  11.1km/h 42.6% 0in /  0.0mm
17:44 67.3 °F /  19.6 °C 43.9 °F /  6.6 °C 30in /  1015.1hPa SSE 2mph /  3.2km/h 7mph /  11.3km/h 43% 0in /  0.0mm
17:49 66.9 °F /  19.4 °C 44.2 °F /  6.8 °C 30in /  1015.1hPa Sur 3mph /  4.9km/h 7mph /  11.3km/h 43.9% 0in /  0.0mm
17:54 66.7 °F /  19.3 °C 44.1 °F /  6.7 °C 30in /  1015.0hPa SSE 4mph /  6.5km/h 7mph /  11.3km/h 44% 0in /  0.0mm
17:59 66.6 °F /  19.2 °C 44.6 °F /  7 °C 30in /  1015.0hPa SSE 3.8mph /  6.1km/h 7mph /  11.3km/h 44.9% 0in /  0.0mm
18:04 66.6 °F /  19.2 °C 44.4 °F /  6.9 °C 30in /  1015.1hPa SE 3.6mph /  5.8km/h 5.9mph /  9.5km/h 45% 0in /  0.0mm
18:09 66.2 °F /  19 °C 44.2 °F /  6.8 °C 30in /  1015.1hPa SSE 3.2mph /  5.2km/h 6mph /  9.7km/h 45% 0in /  0.0mm
18:14 66 °F /  18.9 °C 44.2 °F /  6.8 °C 30in /  1015.1hPa Sur 2.9mph /  4.6km/h 6mph /  9.7km/h 45.2% 0in /  0.0mm
18:19 65.5 °F /  18.6 °C 44.6 °F /  7 °C 30in /  1015.1hPa ESE 2.9mph /  4.7km/h 6mph /  9.7km/h 46.6% 0in /  0.0mm
18:24 64.9 °F /  18.3 °C 44.6 °F /  7 °C 30in /  1015.0hPa Este 2.9mph /  4.6km/h 5mph /  8km/h 47.7% 0in /  0.0mm
18:29 64.4 °F /  18 °C 44.6 °F /  7 °C 30in /  1015.0hPa Este 2.9mph /  4.7km/h 5mph /  8km/h 48.5% 0in /  0.0mm
18:34 64 °F /  17.8 °C 44.6 °F /  7 °C 30in /  1015.0hPa ESE 2.9mph /  4.6km/h 5mph /  8km/h 49.4% 0in /  0.0mm
18:39 63.9 °F /  17.7 °C 44.8 °F /  7.1 °C 30in /  1014.9hPa ESE 2.3mph /  3.7km/h 4mph /  6.4km/h 50% 0in /  0.0mm
18:44 63.5 °F /  17.5 °C 44.8 °F /  7.1 °C 30in /  1014.9hPa ESE 1.8mph /  2.9km/h 3.1mph /  5km/h 50.5% 0in /  0.0mm
18:49 63.1 °F /  17.3 °C 44.2 °F /  6.8 °C 30in /  1014.9hPa SSE 1.9mph /  3.1km/h 5.9mph /  9.5km/h 50.1% 0in /  0.0mm
18:54 63 °F /  17.2 °C 44.1 °F /  6.7 °C 30in /  1014.9hPa SSE 2mph /  3.2km/h 6.2mph /  10km/h 50% 0in /  0.0mm
18:59 62.8 °F /  17.1 °C 43.9 °F /  6.6 °C 30in /  1014.9hPa Sur 3.2mph /  5.1km/h 6mph /  9.7km/h 50% 0in /  0.0mm
19:04 62.6 °F /  17 °C 44.1 °F /  6.7 °C 30in /  1014.9hPa SSO 4mph /  6.5km/h 6mph /  9.7km/h 50.7% 0in /  0.0mm
19:09 62.4 °F /  16.9 °C 44.2 °F /  6.8 °C 30in /  1014.9hPa SSO 3.8mph /  6.1km/h 9.2mph /  14.8km/h 51.6% 0in /  0.0mm
19:14 62.2 °F /  16.8 °C 44.6 °F /  7 °C 30in /  1014.9hPa SSO 3.6mph /  5.8km/h 9.2mph /  14.8km/h 52.5% 0in /  0.0mm
19:19 62.1 °F /  16.7 °C 44.8 °F /  7.1 °C 30in /  1014.9hPa SO 4.4mph /  7.1km/h 9mph /  14.5km/h 53.1% 0in /  0.0mm
19:24 61.7 °F /  16.5 °C 45 °F /  7.2 °C 30in /  1014.9hPa SO 5.2mph /  8.4km/h 9mph /  14.5km/h 54% 0in /  0.0mm
19:29 61.5 °F /  16.4 °C 44.6 °F /  7 °C 30in /  1014.9hPa SO 5.2mph /  8.4km/h 9.7mph /  15.6km/h 54% 0in /  0.0mm
19:34 61.3 °F /  16.3 °C 44.8 °F /  7.1 °C 30in /  1015.0hPa SO 5.2mph /  8.4km/h 11.5mph /  18.5km/h 54.8% 0in /  0.0mm
19:39 61.2 °F /  16.2 °C 44.8 °F /  7.1 °C 30in /  1015.0hPa SSO 5.3mph /  8.5km/h 12mph /  19.3km/h 55% 0in /  0.0mm
19:44 60.8 °F /  16 °C 44.6 °F /  7 °C 30in /  1015.0hPa SO 5.4mph /  8.7km/h 10.7mph /  17.2km/h 55.3% 0in /  0.0mm
19:49 60.4 °F /  15.8 °C 44.8 °F /  7.1 °C 30in /  1015.1hPa SO 5.7mph /  9.1km/h 11mph /  17.7km/h 56% 0in /  0.0mm
19:54 60.3 °F /  15.7 °C 44.8 °F /  7.1 °C 30in /  1015.1hPa SO 5.9mph /  9.5km/h 9.2mph /  14.8km/h 56.3% 0in /  0.0mm
19:59 60.3 °F /  15.7 °C 45 °F /  7.2 °C 30in /  1015.1hPa SO 5.5mph /  8.8km/h 9mph /  14.5km/h 57% 0in /  0.0mm
20:04 60.1 °F /  15.6 °C 44.8 °F /  7.1 °C 30in /  1015.1hPa SSO 5.2mph /  8.4km/h 8mph /  12.9km/h 57% 0in /  0.0mm
20:09 59.7 °F /  15.4 °C 44.6 °F /  7 °C 30in /  1015.1hPa SO 4.3mph /  7km/h 6.9mph /  11.1km/h 57% 0in /  0.0mm
20:14 59.5 °F /  15.3 °C 44.8 °F /  7.1 °C 30in /  1015.1hPa SO 3.6mph /  5.8km/h 8.1mph /  13km/h 57.8% 0in /  0.0mm
20:19 59.4 °F /  15.2 °C 44.6 °F /  7 °C 30in /  1015.1hPa SO 3.6mph /  5.8km/h 8mph /  12.9km/h 58% 0in /  0.0mm
20:24 59.2 °F /  15.1 °C 44.8 °F /  7.1 °C 30in /  1015.0hPa OSO 3.6mph /  5.8km/h 6mph /  9.7km/h 58.7% 0in /  0.0mm
20:29 59 °F /  15 °C 44.6 °F /  7 °C 30in /  1015.0hPa OSO 2.7mph /  4.4km/h 5mph /  8km/h 59% 0in /  0.0mm
20:34 58.8 °F /  14.9 °C 44.8 °F /  7.1 °C 30in /  1015.1hPa OSO 2mph /  3.2km/h 6.2mph /  10km/h 59.7% 0in /  0.0mm
20:39 58.6 °F /  14.8 °C 44.8 °F /  7.1 °C 30in /  1015.1hPa SO 2mph /  3.2km/h 6.4mph /  10.3km/h 60% 0in /  0.0mm
20:44 58.5 °F /  14.7 °C 45 °F /  7.2 °C 30in /  1015.1hPa OSO 2mph /  3.2km/h 7mph /  11.3km/h 61% 0in /  0.0mm
20:49 58.3 °F /  14.6 °C 45 °F /  7.2 °C 30in /  1015.1hPa OSO 2.5mph /  4.1km/h 7mph /  11.3km/h 61.5% 0in /  0.0mm
20:54 57.9 °F /  14.4 °C 45 °F /  7.2 °C 30in /  1015.0hPa OSO 3.1mph /  5km/h 7.4mph /  11.9km/h 62% 0in /  0.0mm
20:59 57.7 °F /  14.3 °C 45 °F /  7.2 °C 30in /  1015.0hPa Oeste 3mph /  4.8km/h 7mph /  11.3km/h 62% 0in /  0.0mm
21:04 57.7 °F /  14.3 °C 45.1 °F /  7.3 °C 30in /  1015.1hPa Oeste 2.9mph /  4.6km/h 2.4mph /  3.9km/h 63% 0in /  0.0mm
21:09 57.6 °F /  14.2 °C 45.1 °F /  7.3 °C 30in /  1015.1hPa Oeste 1.4mph /  2.3km/h 3.6mph /  5.8km/h 63% 0in /  0.0mm
21:14 57.4 °F /  14.1 °C 45.1 °F /  7.3 °C 30in /  1015.1hPa Calm   4.6mph /  7.4km/h 63.6% 0in /  0.0mm
21:19 57.4 °F /  14.1 °C 45.3 °F /  7.4 °C 30in /  1015.1hPa OSO 1.1mph /  1.7km/h 5.4mph /  8.7km/h 64% 0in /  0.0mm
21:24 57 °F /  13.9 °C 45.1 °F /  7.3 °C 30in /  1015.1hPa SSO 2mph /  3.2km/h 6mph /  9.7km/h 64.1% 0in /  0.0mm
21:29 56.8 °F /  13.8 °C 45.1 °F /  7.3 °C 30in /  1015.1hPa SSE 2.5mph /  4.1km/h 6mph /  9.7km/h 65% 0in /  0.0mm
21:34 56.5 °F /  13.6 °C 45 °F /  7.2 °C 30in /  1015.1hPa SE 3.1mph /  5km/h 5.9mph /  9.5km/h 65.3% 0in /  0.0mm
21:39 55.9 °F /  13.3 °C 45 °F /  7.2 °C 30in /  1015.0hPa SSE 3.1mph /  5km/h 6.9mph /  11.1km/h 66.5% 0in /  0.0mm
21:44 55.8 °F /  13.2 °C 45.1 °F /  7.3 °C 30in /  1015.0hPa Sur 3.1mph /  5km/h 7mph /  11.3km/h 67.8% 0in /  0.0mm
21:49 55.4 °F /  13 °C 45.1 °F /  7.3 °C 30in /  1015.0hPa Sur 3.5mph /  5.7km/h 6.9mph /  11.1km/h 68.4% 0in /  0.0mm
21:54 55.2 °F /  12.9 °C 45.1 °F /  7.3 °C 30in /  1015.0hPa Sur 4mph /  6.5km/h 7mph /  11.3km/h 69% 0in /  0.0mm
21:59 55 °F /  12.8 °C 45.1 °F /  7.3 °C 30in /  1015.0hPa Sur 3.8mph /  6.1km/h 5.2mph /  8.4km/h 69% 0in /  0.0mm
22:04 55 °F /  12.8 °C 45.1 °F /  7.3 °C 30in /  1015.0hPa Sur 3.6mph /  5.8km/h 5.2mph /  8.4km/h 69% 0in /  0.0mm
22:09 55 °F /  12.8 °C 45.1 °F /  7.3 °C 30in /  1014.9hPa Sur 3.8mph /  6.1km/h 5.2mph /  8.4km/h 69% 0in /  0.0mm
22:14 54.9 °F /  12.7 °C 45 °F /  7.2 °C 30in /  1014.9hPa SSO 4mph /  6.5km/h 5.8mph /  9.3km/h 69% 0in /  0.0mm
22:19 54.9 °F /  12.7 °C 45 °F /  7.2 °C 30in /  1014.9hPa SSO 3.8mph /  6.1km/h 6.2mph /  10km/h 69% 0in /  0.0mm
22:24 54.9 °F /  12.7 °C 45 °F /  7.2 °C 30in /  1014.8hPa SO 3.6mph /  5.8km/h 8.5mph /  13.7km/h 69% 0in /  0.0mm
22:29 55 °F /  12.8 °C 45.1 °F /  7.3 °C 30in /  1014.8hPa SO 4.2mph /  6.7km/h 9.2mph /  14.8km/h 69% 0in /  0.0mm
22:34 55 °F /  12.8 °C 44.8 °F /  7.1 °C 30in /  1014.8hPa SO 4.7mph /  7.6km/h 9.7mph /  15.6km/h 68.2% 0in /  0.0mm
22:39 55.2 °F /  12.9 °C 44.8 °F /  7.1 °C 30in /  1014.7hPa SO 5.3mph /  8.5km/h 10mph /  16.1km/h 68% 0in /  0.0mm
22:44 55.2 °F /  12.9 °C 44.8 °F /  7.1 °C 30in /  1014.7hPa SO 5.9mph /  9.5km/h 9mph /  14.5km/h 68% 0in /  0.0mm
22:49 55 °F /  12.8 °C 44.8 °F /  7.1 °C 30in /  1014.7hPa SSO 5.3mph /  8.5km/h 8.1mph /  13km/h 68% 0in /  0.0mm
22:54 55 °F /  12.8 °C 44.6 °F /  7 °C 30in /  1014.6hPa SO 4.7mph /  7.6km/h 8mph /  12.9km/h 68% 0in /  0.0mm
22:59 54.9 °F /  12.7 °C 44.4 °F /  6.9 °C 30in /  1014.6hPa SSO 4.3mph /  6.9km/h 7mph /  11.3km/h 68% 0in /  0.0mm
23:04 54.7 °F /  12.6 °C 44.4 °F /  6.9 °C 30in /  1014.6hPa Sur 4mph /  6.5km/h 6mph /  9.7km/h 68.2% 0in /  0.0mm
23:09 54.5 °F /  12.5 °C 44.6 °F /  7 °C 30in /  1014.5hPa SSO 3.5mph /  5.6km/h 5mph /  8km/h 69% 0in /  0.0mm
23:14 54.3 °F /  12.4 °C 44.4 °F /  6.9 °C 30in /  1014.5hPa SSE 2.9mph /  4.7km/h 5.2mph /  8.4km/h 69% 0in /  0.0mm
23:19 54 °F /  12.2 °C 44.4 °F /  6.9 °C 30in /  1014.6hPa Sur 3mph /  4.8km/h 5.8mph /  9.3km/h 70% 0in /  0.0mm
23:24 53.8 °F /  12.1 °C 44.4 °F /  6.9 °C 30in /  1014.6hPa Sur 3.1mph /  5km/h 6mph /  9.7km/h 70.8% 0in /  0.0mm
23:29 53.4 °F /  11.9 °C 44.2 °F /  6.8 °C 30in /  1014.6hPa Sur 3.4mph /  5.4km/h 6.2mph /  10km/h 71.2% 0in /  0.0mm
23:34 53.2 °F /  11.8 °C 44.4 °F /  6.9 °C 30in /  1014.6hPa Sur 3.6mph /  5.8km/h 6mph /  9.7km/h 72% 0in /  0.0mm
23:39 53.1 °F /  11.7 °C 44.4 °F /  6.9 °C 30in /  1014.5hPa Sur 3.4mph /  5.4km/h 6.2mph /  10km/h 72% 0in /  0.0mm
23:44 52.9 °F /  11.6 °C 44.1 °F /  6.7 °C 30in /  1014.5hPa Sur 3.1mph /  5km/h 6.2mph /  10km/h 72% 0in /  0.0mm
23:49 52.5 °F /  11.4 °C 44.1 °F /  6.7 °C 30in /  1014.5hPa Sur 3.5mph /  5.7km/h 6.4mph /  10.3km/h 72.7% 0in /  0.0mm
23:54 52.3 °F /  11.3 °C 43.9 °F /  6.6 °C 30in /  1014.4hPa SSE 4mph /  6.5km/h 7.6mph /  12.2km/h 73% 0in /  0.0mm
23:59 52 °F /  11.1 °C 43.9 °F /  6.6 °C 30in /  1014.4hPa SSE 4.7mph /  7.6km/h 8.1mph /  13km/h 73.9% 0in /  0.0mm
Murcia-Puente Tocinos, España
Compliments of Weather Underground - 2.75 mb

La estación de MeteoMurcia.com, publica sus datos en los siguientes proyectos:

Weather Underground PWS IMURCIAP2 Meteoclimatic www.awekas.at

W3Counter
Web Analytics